Time;durP1;ratioP1;P1;durP2;ratioP2;P2;SDS_P1;SDS_P2;PMS_P1;PMS_P2;Temp;Humidity;BMP_temperature;BMP_pressure;BME280_temperature;BME280_humidity;BME280_pressure;Samples;Min_cycle;Max_cycle;Signal;HPM_P1;HPM_P2
2021/11/09 00:00:48;;;;;;;18.02;12.05;;;5.40;99.90;;;;;;5114032;28;20301;-72
2021/11/09 00:03:15;;;;;;;17.40;11.48;;;5.40;99.90;;;;;;5113774;28;20235;-72
2021/11/09 00:05:50;;;;;;;16.80;10.77;;;5.40;99.90;;;;;;5113648;28;20693;-71
2021/11/09 00:08:21;;;;;;;19.60;11.45;;;5.50;99.90;;;;;;5114290;28;20227;-72
2021/11/09 00:10:48;;;;;;;15.90;11.38;;;5.60;99.90;;;;;;5113873;28;20198;-72
2021/11/09 00:13:16;;;;;;;19.92;11.15;;;5.30;99.90;;;;;;5113555;28;20309;-70
2021/11/09 00:15:43;;;;;;;16.27;10.85;;;5.40;99.90;;;;;;5113281;28;20201;-72
2021/11/09 00:18:11;;;;;;;17.90;10.68;;;5.40;99.90;;;;;;5113974;28;20297;-71
2021/11/09 00:20:40;;;;;;;19.83;11.63;;;5.40;99.90;;;;;;5113649;28;20234;-74
2021/11/09 00:23:09;;;;;;;14.80;10.30;;;5.40;99.90;;;;;;5113368;28;20221;-72
2021/11/09 00:25:39;;;;;;;15.30;11.00;;;5.50;99.90;;;;;;5113344;28;20205;-72
2021/11/09 00:28:07;;;;;;;19.10;10.50;;;5.50;99.90;;;;;;5113682;28;20205;-71
2021/11/09 00:30:35;;;;;;;13.38;10.02;;;5.30;99.90;;;;;;5113638;28;20574;-70
2021/11/09 00:33:02;;;;;;;15.57;10.35;;;5.20;99.90;;;;;;5113103;28;20229;-74
2021/11/09 00:35:31;;;;;;;15.32;10.90;;;5.20;99.90;;;;;;5113029;28;20585;-73
2021/11/09 00:38:00;;;;;;;15.70;10.70;;;5.00;99.90;;;;;;5113540;28;20205;-73
2021/11/09 00:40:29;;;;;;;21.65;11.00;;;4.80;99.90;;;;;;5113208;28;20715;-73
2021/11/09 00:42:58;;;;;;;17.45;11.80;;;4.90;99.90;;;;;;5112889;28;20224;-72
2021/11/09 00:45:25;;;;;;;18.33;11.13;;;4.70;99.90;;;;;;5113329;28;20201;-72
2021/11/09 00:47:52;;;;;;;19.35;10.93;;;4.80;99.90;;;;;;5113566;28;20212;-70
2021/11/09 00:50:21;;;;;;;14.85;9.90;;;4.90;99.90;;;;;;5113176;28;20202;-69
2021/11/09 00:52:48;;;;;;;16.48;10.88;;;5.00;99.90;;;;;;5112870;28;20221;-71
2021/11/09 00:55:15;;;;;;;19.42;11.85;;;5.00;99.90;;;;;;5112843;28;20228;-73
2021/11/09 00:57:42;;;;;;;20.15;12.70;;;5.10;99.90;;;;;;5113220;28;20202;-74
2021/11/09 01:00:14;;;;;;;13.60;10.15;;;5.20;99.90;;;;;;5112983;28;20201;-73
2021/11/09 01:02:41;;;;;;;15.05;11.63;;;5.20;99.90;;;;;;5113082;28;20638;-73
2021/11/09 01:05:08;;;;;;;19.00;11.80;;;5.30;99.90;;;;;;5113123;28;20204;-73
2021/11/09 01:07:35;;;;;;;16.33;11.57;;;5.20;99.90;;;;;;5112808;28;20227;-72
2021/11/09 01:10:02;;;;;;;19.80;11.80;;;5.20;99.90;;;;;;5113150;28;20213;-72
2021/11/09 01:12:29;;;;;;;15.82;12.20;;;5.30;99.90;;;;;;5112775;28;20207;-72
2021/11/09 01:14:57;;;;;;;19.05;11.68;;;5.40;99.90;;;;;;5112704;28;20582;-72
2021/11/09 01:17:25;;;;;;;15.68;11.38;;;5.40;99.90;;;;;;5112906;28;20197;-72
2021/11/09 01:19:52;;;;;;;18.02;12.10;;;5.50;99.90;;;;;;5112729;28;20308;-72
2021/11/09 01:22:19;;;;;;;14.50;10.55;;;5.20;99.90;;;;;;5112328;28;20296;-72
2021/11/09 01:24:46;;;;;;;17.67;11.13;;;5.20;99.90;;;;;;5112580;28;20234;-72
2021/11/09 01:27:13;;;;;;;20.25;12.25;;;5.20;99.90;;;;;;5112648;28;20208;-71
2021/11/09 01:29:40;;;;;;;20.48;12.10;;;5.10;99.90;;;;;;5112782;28;20205;-73
2021/11/09 01:32:08;;;;;;;18.77;12.35;;;5.10;99.90;;;;;;5112419;28;20292;-71
2021/11/09 01:34:36;;;;;;;15.82;11.18;;;5.00;99.90;;;;;;5112159;28;20734;-73
2021/11/09 01:37:04;;;;;;;15.60;11.30;;;5.20;99.90;;;;;;5112463;28;20773;-71
2021/11/09 01:39:31;;;;;;;18.85;10.88;;;5.40;99.90;;;;;;5112612;28;20637;-72
2021/11/09 01:41:57;;;;;;;20.50;11.45;;;5.30;99.90;;;;;;5112406;28;20578;-69
2021/11/09 01:44:24;;;;;;;14.73;10.48;;;5.30;99.90;;;;;;5112347;28;20222;-70
2021/11/09 01:46:51;;;;;;;17.50;10.38;;;5.40;99.90;;;;;;5112402;28;20201;-70
2021/11/09 01:49:18;;;;;;;13.30;10.15;;;5.50;99.90;;;;;;5112373;28;20201;-70
2021/11/09 01:51:47;;;;;;;16.60;10.63;;;5.50;99.90;;;;;;5112394;28;20201;-70
2021/11/09 01:54:13;;;;;;;17.95;10.23;;;5.50;99.90;;;;;;5112217;28;20227;-70
2021/11/09 01:56:41;;;;;;;16.48;9.75;;;5.50;99.90;;;;;;5112355;28;20197;-71
2021/11/09 01:59:07;;;;;;;19.52;11.48;;;5.60;99.90;;;;;;5112522;28;20204;-71
2021/11/09 02:01:35;;;;;;;17.40;11.02;;;5.40;99.90;;;;;;5112051;28;20201;-70
2021/11/09 02:04:05;;;;;;;18.58;12.05;;;5.40;99.90;;;;;;5112000;28;20228;-72
2021/11/09 02:06:32;;;;;;;17.05;11.45;;;5.40;99.90;;;;;;5112272;28;20201;-70
2021/11/09 02:09:04;;;;;;;18.55;11.30;;;5.40;99.90;;;;;;5112244;28;20201;-69
2021/11/09 02:11:30;;;;;;;16.35;11.13;;;5.50;99.90;;;;;;5112167;28;20216;-70
2021/11/09 02:13:57;;;;;;;16.60;10.82;;;5.60;99.90;;;;;;5111955;28;20217;-69
2021/11/09 02:16:25;;;;;;;14.50;10.85;;;5.60;99.90;;;;;;5111330;28;20201;-70
2021/11/09 02:18:52;;;;;;;13.73;10.35;;;5.60;99.90;;;;;;5112582;28;20638;-71
2021/11/09 02:21:20;;;;;;;16.60;11.15;;;5.60;99.90;;;;;;5115382;28;20292;-69
2021/11/09 02:23:48;;;;;;;16.23;11.30;;;5.60;99.90;;;;;;5115909;28;20227;-68
2021/11/09 02:26:20;;;;;;;21.92;12.60;;;5.50;99.90;;;;;;5115638;28;20571;-69
2021/11/09 02:28:51;;;;;;;16.98;12.25;;;5.30;99.90;;;;;;5116067;28;20297;-69
2021/11/09 02:31:18;;;;;;;19.35;12.75;;;5.10;99.90;;;;;;5115874;28;20208;-69
2021/11/09 02:33:46;;;;;;;20.38;12.02;;;5.00;99.90;;;;;;5115659;28;20316;-69
2021/11/09 02:36:13;;;;;;;18.92;12.00;;;5.10;99.90;;;;;;5115202;28;20228;-70
2021/11/09 02:38:41;;;;;;;16.95;12.43;;;5.10;99.90;;;;;;5116368;28;20655;-69
2021/11/09 02:41:08;;;;;;;16.58;12.50;;;5.20;99.90;;;;;;5117271;28;20296;-69
2021/11/09 02:43:35;;;;;;;16.60;12.73;;;5.30;99.90;;;;;;5117129;28;20221;-69
2021/11/09 02:48:50;;;;;;;17.08;12.10;;;5.40;99.90;;;;;;5113278;28;20627;-69
2021/11/09 02:51:20;;;;;;;16.13;10.70;;;5.50;99.90;;;;;;5117068;28;20237;-70
2021/11/09 02:53:53;;;;;;;15.50;11.10;;;5.60;99.90;;;;;;5116879;28;20579;-68
2021/11/09 02:56:23;;;;;;;19.23;12.45;;;5.50;99.90;;;;;;5116936;28;20253;-70
2021/11/09 02:58:55;;;;;;;17.70;12.38;;;5.20;99.90;;;;;;5116987;28;20212;-69
2021/11/09 03:01:26;;;;;;;21.25;12.07;;;5.00;99.90;;;;;;5116667;28;20197;-69
2021/11/09 03:04:00;;;;;;;15.15;11.30;;;5.10;99.90;;;;;;5116998;28;20691;-69
2021/11/09 03:06:31;;;;;;;17.02;12.05;;;5.20;99.90;;;;;;5117173;28;20185;-69
2021/11/09 03:09:05;;;;;;;18.27;11.75;;;5.10;99.90;;;;;;5116511;28;20711;-69
2021/11/09 03:11:33;;;;;;;16.63;12.00;;;5.20;99.90;;;;;;5116488;28;20570;-69
2021/11/09 03:14:00;;;;;;;17.42;11.45;;;5.30;99.90;;;;;;5116969;28;20221;-69
2021/11/09 03:16:31;;;;;;;18.17;12.18;;;5.20;99.90;;;;;;5116775;28;20256;-69
2021/11/09 03:19:04;;;;;;;17.90;12.80;;;5.30;99.90;;;;;;5116894;28;20201;-68
2021/11/09 03:46:34;;;;;;;15.32;11.70;;;5.00;99.90;;;;;;5067082;28;20244;-69
2021/11/09 03:49:03;;;;;;;17.20;11.70;;;4.90;99.90;;;;;;5116089;28;20543;-69
2021/11/09 03:51:29;;;;;;;16.00;11.30;;;5.00;99.90;;;;;;5115791;28;20198;-69
2021/11/09 03:54:00;;;;;;;17.13;11.43;;;4.90;99.90;;;;;;5116068;28;20571;-69
2021/11/09 03:56:35;;;;;;;16.23;11.43;;;5.00;99.90;;;;;;5115901;28;20564;-70
2021/11/09 03:59:05;;;;;;;19.48;11.02;;;5.00;99.90;;;;;;5115541;28;20211;-69
2021/11/09 04:01:37;;;;;;;14.43;10.80;;;5.10;99.90;;;;;;5115665;28;20208;-69
2021/11/09 04:04:21;;;;;;;17.90;11.30;;;5.10;99.90;;;;;;5115541;28;20316;-68
2021/11/09 04:06:50;;;;;;;18.13;10.75;;;5.10;99.90;;;;;;5115568;28;20212;-69
2021/11/09 04:09:22;;;;;;;18.27;10.77;;;5.10;99.90;;;;;;5115518;28;20233;-69
2021/11/09 04:11:55;;;;;;;15.07;10.50;;;5.00;99.90;;;;;;5115053;28;20240;-69
2021/11/09 04:14:30;;;;;;;14.75;10.45;;;5.00;99.90;;;;;;5115292;28;20231;-69
2021/11/09 04:17:01;;;;;;;16.15;10.07;;;5.00;99.90;;;;;;5115761;28;20200;-69
2021/11/09 04:19:38;;;;;;;14.15;10.23;;;5.10;99.90;;;;;;5115648;28;20517;-69
2021/11/09 04:22:54;;;;;;;12.65;10.05;;;5.00;99.90;;;;;;5115265;28;20625;-69
2021/11/09 04:25:28;;;;;;;13.48;9.13;;;5.00;99.90;;;;;;5115332;28;20201;-69
2021/11/09 04:28:08;;;;;;;11.93;9.60;;;5.00;99.90;;;;;;5115142;28;20240;-69
2021/11/09 04:52:43;;;;;;;11.82;8.80;;;5.00;99.90;;;;;;5114451;28;20250;-69
2021/11/09 05:09:06;;;;;;;17.23;10.70;;;4.70;99.90;;;;;;5114351;28;20241;-69
2021/11/09 05:11:33;;;;;;;13.82;10.18;;;4.40;99.90;;;;;;5114496;28;20201;-69
2021/11/09 05:14:00;;;;;;;17.77;9.95;;;4.30;99.90;;;;;;5114509;28;20225;-69
2021/11/09 05:16:28;;;;;;;13.10;8.93;;;4.40;99.90;;;;;;5114398;28;20221;-69
2021/11/09 05:18:55;;;;;;;15.68;9.10;;;4.50;99.90;;;;;;5114519;28;20223;-69
2021/11/09 05:21:22;;;;;;;15.45;10.23;;;4.60;99.90;;;;;;5114401;28;20206;-69
2021/11/09 05:23:49;;;;;;;16.02;10.07;;;4.70;99.90;;;;;;5114563;28;20218;-70
2021/11/09 05:26:16;;;;;;;15.30;9.70;;;4.60;99.90;;;;;;5114254;28;20590;-69
2021/11/09 05:28:43;;;;;;;15.23;9.07;;;4.60;99.90;;;;;;5114267;28;20309;-69
2021/11/09 05:31:09;;;;;;;14.55;9.80;;;4.60;99.90;;;;;;5114106;28;20204;-68
2021/11/09 05:33:38;;;;;;;12.48;8.70;;;4.50;99.90;;;;;;5113662;28;20737;-69
2021/11/09 05:36:06;;;;;;;12.20;8.70;;;4.50;99.90;;;;;;5114634;28;20240;-69
2021/11/09 05:38:43;;;;;;;16.33;9.05;;;4.50;99.90;;;;;;5114391;28;20198;-69
2021/11/09 05:41:11;;;;;;;10.55;7.70;;;4.60;99.90;;;;;;5113972;28;20215;-69
2021/11/09 05:43:38;;;;;;;11.82;8.07;;;4.60;99.90;;;;;;5114309;28;20274;-69
2021/11/09 05:46:08;;;;;;;11.90;7.40;;;4.50;99.90;;;;;;5114016;28;20203;-69
2021/11/09 05:48:37;;;;;;;12.38;8.13;;;4.60;99.90;;;;;;5114373;28;20258;-69
2021/11/09 05:51:03;;;;;;;11.23;8.05;;;4.70;99.90;;;;;;5114175;28;20201;-69
2021/11/09 05:53:33;;;;;;;15.85;9.18;;;4.70;99.90;;;;;;5113754;28;20698;-69
2021/11/09 05:56:00;;;;;;;14.70;9.30;;;4.70;99.90;;;;;;5116852;28;20267;-69
2021/11/09 05:58:27;;;;;;;9.95;8.18;;;4.70;99.90;;;;;;5118065;28;20201;-70
2021/11/09 06:00:54;;;;;;;12.85;8.70;;;4.60;99.90;;;;;;5118190;28;20291;-69
2021/11/09 06:03:23;;;;;;;18.85;11.20;;;4.60;99.90;;;;;;5117446;28;20590;-69
2021/11/09 06:05:51;;;;;;;14.63;10.13;;;4.30;99.90;;;;;;5117661;28;20197;-69
2021/11/09 06:08:18;;;;;;;15.38;9.68;;;4.40;99.90;;;;;;5118014;28;20297;-69
2021/11/09 06:10:45;;;;;;;14.35;9.88;;;4.20;99.90;;;;;;5117944;28;20204;-70
2021/11/09 06:13:12;;;;;;;19.48;9.45;;;4.20;99.90;;;;;;5117845;28;20225;-69
2021/11/09 06:15:39;;;;;;;15.30;10.75;;;4.30;99.90;;;;;;5118227;28;20224;-68
2021/11/09 06:18:06;;;;;;;16.30;10.25;;;4.20;99.90;;;;;;5118057;28;20304;-69
2021/11/09 06:20:33;;;;;;;15.20;9.75;;;4.10;99.90;;;;;;5117406;28;20640;-70
2021/11/09 06:23:02;;;;;;;17.05;9.60;;;4.10;99.90;;;;;;5117496;28;20571;-70
2021/11/09 06:25:29;;;;;;;14.77;10.30;;;4.20;99.90;;;;;;5117925;28;20204;-69
2021/11/09 06:27:56;;;;;;;14.60;9.65;;;4.30;99.90;;;;;;5117621;28;20206;-69
2021/11/09 06:30:24;;;;;;;18.40;9.77;;;4.40;99.90;;;;;;5117723;28;20206;-69
2021/11/09 06:32:51;;;;;;;13.70;9.80;;;4.40;99.90;;;;;;5116783;28;20229;-69
2021/11/09 06:35:18;;;;;;;17.17;10.15;;;4.50;99.90;;;;;;5117353;28;20231;-69
2021/11/09 06:37:45;;;;;;;14.65;9.80;;;4.50;99.90;;;;;;5117310;28;20606;-69
2021/11/09 06:40:14;;;;;;;14.65;10.23;;;4.50;99.90;;;;;;5117429;28;20296;-69
2021/11/09 06:42:41;;;;;;;13.05;9.02;;;4.50;99.90;;;;;;5117158;28;20209;-69
2021/11/09 06:45:08;;;;;;;14.55;9.52;;;4.60;99.90;;;;;;5117490;28;20205;-69
2021/11/09 06:47:35;;;;;;;15.55;10.43;;;4.60;99.90;;;;;;5116813;28;20647;-69
2021/11/09 06:50:07;;;;;;;15.88;11.15;;;4.50;99.90;;;;;;5116971;28;20201;-69
2021/11/09 06:52:34;;;;;;;15.25;10.73;;;4.50;99.90;;;;;;5116878;28;20292;-69
2021/11/09 06:55:01;;;;;;;16.80;11.20;;;4.60;99.90;;;;;;5117422;28;20209;-69
2021/11/09 06:57:30;;;;;;;15.55;9.85;;;4.60;99.90;;;;;;5117341;28;20206;-68
2021/11/09 06:59:56;;;;;;;14.68;10.80;;;4.60;99.90;;;;;;5116799;28;20296;-69
2021/11/09 07:02:26;;;;;;;12.77;10.55;;;4.50;99.90;;;;;;5116620;28;20292;-69
2021/11/09 07:04:53;;;;;;;15.90;10.60;;;4.60;99.90;;;;;;5117208;28;20205;-69
2021/11/09 07:07:20;;;;;;;18.05;10.68;;;4.60;99.90;;;;;;5116517;28;20284;-69
2021/11/09 07:09:47;;;;;;;16.33;11.63;;;4.40;99.90;;;;;;5117009;28;20205;-69
2021/11/09 07:12:14;;;;;;;18.63;12.60;;;4.30;99.90;;;;;;5116458;28;20212;-69
2021/11/09 07:14:42;;;;;;;19.27;13.32;;;4.10;99.90;;;;;;5116609;28;20291;-69
2021/11/09 07:17:11;;;;;;;18.50;13.45;;;4.10;99.90;;;;;;5116595;28;20225;-69
2021/11/09 07:19:38;;;;;;;20.23;13.57;;;4.00;99.90;;;;;;5116662;28;20288;-68
2021/11/09 07:22:05;;;;;;;20.65;12.68;;;4.00;99.90;;;;;;5116212;28;20208;-69
2021/11/09 07:24:33;;;;;;;18.85;13.13;;;4.10;99.90;;;;;;5116738;28;20257;-69
2021/11/09 07:27:00;;;;;;;22.40;13.60;;;3.90;99.90;;;;;;5116724;28;20292;-69
2021/11/09 07:29:27;;;;;;;19.13;13.43;;;3.90;99.90;;;;;;5116161;28;20296;-69
2021/11/09 07:31:56;;;;;;;16.75;12.25;;;3.80;99.90;;;;;;5115969;28;20202;-69
2021/11/09 07:34:23;;;;;;;19.42;13.05;;;3.80;99.90;;;;;;5116713;27;20264;-69
2021/11/09 07:36:51;;;;;;;18.95;13.10;;;4.00;99.90;;;;;;5116309;28;20220;-69
2021/11/09 07:39:19;;;;;;;18.00;12.75;;;4.10;99.90;;;;;;5116467;28;20201;-69
2021/11/09 07:41:47;;;;;;;19.33;13.15;;;4.20;99.90;;;;;;5115925;28;20228;-69
2021/11/09 07:44:14;;;;;;;19.00;12.77;;;4.30;99.90;;;;;;5116224;28;20222;-69
2021/11/09 07:46:41;;;;;;;17.10;12.70;;;4.50;99.90;;;;;;5116188;28;20551;-69
2021/11/09 07:49:09;;;;;;;20.25;12.90;;;4.50;99.90;;;;;;5116219;28;20291;-69
2021/11/09 07:51:36;;;;;;;21.48;14.00;;;4.70;99.90;;;;;;5115822;28;20240;-69
2021/11/09 07:54:05;;;;;;;21.73;14.43;;;4.80;99.90;;;;;;5115447;28;20221;-69
2021/11/09 07:56:33;;;;;;;20.38;12.77;;;4.90;99.90;;;;;;5115578;28;20224;-69
2021/11/09 07:59:13;;;;;;;20.60;14.38;;;4.90;99.90;;;;;;5116201;28;20228;-69
2021/11/09 08:01:43;;;;;;;26.15;17.45;;;4.90;99.90;;;;;;5115619;28;20208;-69
2021/11/09 08:04:14;;;;;;;23.20;15.63;;;4.90;99.90;;;;;;5115390;28;20270;-69
2021/11/09 08:06:52;;;;;;;24.15;15.90;;;5.00;99.90;;;;;;5115640;28;20201;-69
2021/11/09 08:09:23;;;;;;;26.95;15.48;;;5.10;99.90;;;;;;5115696;28;20205;-69
2021/11/09 08:11:51;;;;;;;23.10;15.80;;;5.10;99.90;;;;;;5115261;28;20198;-69
2021/11/09 08:14:18;;;;;;;23.52;14.93;;;5.10;99.90;;;;;;5115899;28;20278;-69
2021/11/09 08:16:47;;;;;;;22.70;16.02;;;5.10;99.90;;;;;;5115355;28;20217;-69
2021/11/09 08:19:16;;;;;;;19.13;15.18;;;5.20;99.90;;;;;;5114849;28;20208;-69
2021/11/09 08:21:44;;;;;;;25.88;16.33;;;5.20;99.90;;;;;;5115015;28;20208;-69
2021/11/09 08:24:13;;;;;;;22.42;16.95;;;5.30;99.90;;;;;;5115845;28;20316;-69
2021/11/09 08:26:40;;;;;;;22.48;16.55;;;5.40;99.90;;;;;;5115431;28;20201;-69
2021/11/09 08:29:07;;;;;;;26.70;16.45;;;5.40;99.90;;;;;;5115433;28;20201;-69
2021/11/09 08:31:36;;;;;;;24.13;15.95;;;5.40;99.90;;;;;;5115090;28;20587;-69
2021/11/09 08:34:05;;;;;;;23.88;17.40;;;5.50;99.90;;;;;;5114870;28;20240;-69
2021/11/09 08:36:34;;;;;;;24.02;16.70;;;5.50;99.90;;;;;;5115077;28;20316;-69
2021/11/09 08:39:04;;;;;;;27.58;16.83;;;5.60;99.90;;;;;;5115215;28;20232;-69
2021/11/09 08:41:38;;;;;;;26.15;16.70;;;5.60;99.90;;;;;;5115345;28;20202;-69
2021/11/09 08:44:08;;;;;;;24.50;16.52;;;5.60;99.90;;;;;;5114851;28;20221;-69
2021/11/09 08:46:40;;;;;;;27.95;16.13;;;5.60;99.90;;;;;;5114922;28;20247;-69
2021/11/09 08:49:08;;;;;;;24.35;16.60;;;5.70;99.90;;;;;;5114826;28;20678;-69
2021/11/09 08:51:37;;;;;;;23.70;16.48;;;5.70;99.90;;;;;;5114644;28;20288;-69
2021/11/09 08:54:12;;;;;;;23.13;16.10;;;5.80;99.90;;;;;;5114970;28;20265;-69
2021/11/09 09:04:56;;;;;;;25.73;17.23;;;6.00;99.90;;;;;;5114604;28;20193;-70
2021/11/09 09:07:25;;;;;;;20.73;16.50;;;6.00;99.90;;;;;;5114567;28;20204;-69
2021/11/09 09:09:53;;;;;;;24.55;17.15;;;6.10;99.90;;;;;;5114637;28;20208;-70
2021/11/09 09:12:20;;;;;;;21.83;15.75;;;6.00;99.90;;;;;;5113898;28;20202;-70
2021/11/09 09:14:47;;;;;;;24.10;16.23;;;6.00;99.90;;;;;;5114858;28;20308;-70
2021/11/09 09:17:14;;;;;;;23.55;15.77;;;6.10;99.90;;;;;;5114599;28;20227;-69
2021/11/09 09:19:44;;;;;;;22.08;16.73;;;6.10;99.90;;;;;;5114058;28;20296;-70
2021/11/09 09:22:12;;;;;;;25.73;16.85;;;6.20;99.90;;;;;;5114231;28;20197;-68
2021/11/09 09:24:57;;;;;;;22.83;17.20;;;6.10;99.90;;;;;;5114313;27;20225;-70
2021/11/09 09:27:29;;;;;;;27.10;17.85;;;5.90;99.90;;;;;;5114623;28;20270;-69
2021/11/09 09:52:20;;;;;;;22.92;15.77;;;6.60;99.90;;;;;;5114087;28;20232;-69
2021/11/09 09:57:31;;;;;;;21.60;14.35;;;6.80;99.90;;;;;;5110083;28;20220;-69
2021/11/09 09:59:58;;;;;;;17.10;14.00;;;6.70;99.90;;;;;;5114082;28;20206;-69
2021/11/09 10:02:27;;;;;;;21.67;13.13;;;6.80;99.90;;;;;;5113504;28;20564;-70
2021/11/09 10:04:57;;;;;;;19.60;12.38;;;6.80;99.90;;;;;;5114495;28;20293;-69
2021/11/09 10:07:29;;;;;;;11.77;9.30;;;6.80;99.90;;;;;;5114252;28;20247;-69
2021/11/09 10:09:57;;;;;;;11.02;6.35;;;6.80;99.90;;;;;;5113849;28;20213;-69
2021/11/09 10:12:30;;;;;;;9.18;5.60;;;6.80;99.90;;;;;;5113684;28;20205;-68
2021/11/09 10:15:00;;;;;;;8.13;5.13;;;6.80;99.90;;;;;;5113743;28;20198;-69
2021/11/09 10:17:29;;;;;;;8.30;5.35;;;6.90;99.90;;;;;;5114142;28;20221;-69
2021/11/09 10:19:58;;;;;;;11.40;5.40;;;7.10;99.90;;;;;;5113595;28;20300;-69
2021/11/09 10:22:28;;;;;;;8.90;5.55;;;7.20;99.90;;;;;;5113545;28;20201;-70
2021/11/09 10:25:01;;;;;;;9.50;5.97;;;7.30;99.90;;;;;;5113721;28;20292;-69
2021/11/09 10:27:30;;;;;;;6.65;5.20;;;7.40;99.90;;;;;;5113927;28;20283;-69
2021/11/09 10:29:59;;;;;;;7.15;5.15;;;7.50;99.90;;;;;;5114016;28;20282;-69
2021/11/09 10:32:29;;;;;;;7.75;5.78;;;7.60;99.90;;;;;;5113009;28;20318;-70
2021/11/09 10:34:59;;;;;;;6.68;5.82;;;7.70;99.90;;;;;;5113692;28;20212;-69
2021/11/09 10:37:28;;;;;;;7.43;5.70;;;7.80;99.90;;;;;;5113695;28;20225;-69
2021/11/09 10:39:58;;;;;;;11.10;6.35;;;7.80;99.90;;;;;;5113830;28;20204;-69
2021/11/09 10:42:27;;;;;;;7.90;6.30;;;7.80;99.90;;;;;;5116443;28;20663;-69
2021/11/09 10:44:58;;;;;;;7.75;5.63;;;7.80;99.90;;;;;;5117213;28;20283;-69
2021/11/09 10:47:29;;;;;;;6.45;4.70;;;8.00;99.90;;;;;;5117315;28;20197;-69
2021/11/09 10:49:59;;;;;;;8.55;5.05;;;8.00;99.90;;;;;;5117251;28;20288;-69
2021/11/09 10:52:30;;;;;;;5.90;4.80;;;8.10;99.90;;;;;;5116674;28;20617;-69
2021/11/09 10:55:09;;;;;;;9.98;4.60;;;8.10;99.90;;;;;;5117763;28;20196;-69
2021/11/09 10:57:52;;;;;;;8.35;5.00;;;8.20;99.90;;;;;;5116928;28;20224;-69
2021/11/09 11:00:36;;;;;;;6.00;4.85;;;8.50;99.90;;;;;;5117099;28;20216;-69
2021/11/09 11:03:21;;;;;;;7.60;4.93;;;8.80;99.90;;;;;;5117131;28;20229;-69
2021/11/09 11:05:48;;;;;;;7.57;5.30;;;9.30;99.90;;;;;;5116551;28;20612;-69
2021/11/09 11:08:15;;;;;;;6.10;4.80;;;9.40;99.90;;;;;;5116825;28;20197;-69
2021/11/09 11:10:42;;;;;;;8.88;4.20;;;9.50;99.90;;;;;;5116802;28;20197;-69
2021/11/09 11:13:20;;;;;;;5.47;3.90;;;9.50;99.90;;;;;;5116619;28;20224;-69
2021/11/09 11:16:07;;;;;;;5.18;3.90;;;9.70;99.90;;;;;;5116955;28;20211;-69
2021/11/09 11:18:38;;;;;;;10.38;5.00;;;9.90;99.90;;;;;;5116544;28;20229;-69
2021/11/09 11:21:05;;;;;;;7.57;4.60;;;10.00;99.90;;;;;;5116544;28;20201;-69
2021/11/09 11:23:32;;;;;;;9.65;4.47;;;10.00;99.90;;;;;;5116487;28;20713;-69
2021/11/09 11:26:00;;;;;;;7.18;4.70;;;10.00;99.90;;;;;;5116690;28;20208;-69
2021/11/09 11:28:29;;;;;;;6.47;5.00;;;9.80;99.90;;;;;;5116673;28;20206;-69
2021/11/09 11:30:56;;;;;;;14.02;4.72;;;9.90;99.90;;;;;;5116342;28;20296;-69
2021/11/09 11:33:23;;;;;;;7.82;5.30;;;9.90;99.90;;;;;;5116056;28;20682;-69
2021/11/09 11:35:53;;;;;;;9.43;5.57;;;10.00;99.90;;;;;;5116399;28;20228;-70
2021/11/09 11:38:21;;;;;;;7.78;6.00;;;10.00;99.90;;;;;;5116338;28;20227;-69
2021/11/09 11:40:50;;;;;;;5.53;4.72;;;10.00;99.90;;;;;;5116464;28;20540;-69
2021/11/09 11:43:58;;;;;;;5.30;4.75;;;10.00;99.90;;;;;;5115609;28;20226;-69
2021/11/09 11:46:46;;;;;;;7.95;5.10;;;9.90;99.90;;;;;;5079514;28;20206;-72
2021/11/09 11:49:16;;;;;;;10.95;6.10;;;10.00;99.90;;;;;;5102414;28;20208;-72
2021/11/09 11:52:03;;;;;;;6.78;4.88;;;10.10;99.90;;;;;;5114642;28;20205;-71
2021/11/09 11:55:04;;;;;;;8.43;5.10;;;10.10;99.90;;;;;;5114559;28;20308;-72
2021/11/09 11:57:42;;;;;;;13.35;8.05;;;10.10;99.90;;;;;;5114432;28;20225;-73
2021/11/09 12:00:39;;;;;;;6.53;4.60;;;10.30;99.90;;;;;;5114332;28;20288;-73
2021/11/09 12:03:35;;;;;;;8.48;5.65;;;10.40;99.90;;;;;;5113799;28;20309;-71
2021/11/09 12:06:15;;;;;;;4.95;4.05;;;10.60;99.90;;;;;;5109081;28;20324;-72
2021/11/09 12:08:46;;;;;;;5.22;4.00;;;10.90;99.90;;;;;;5101885;28;20217;-73
2021/11/09 12:11:38;;;;;;;7.38;4.20;;;11.10;99.90;;;;;;5094256;28;20202;-73
2021/11/09 12:14:07;;;;;;;7.15;4.88;;;11.50;99.90;;;;;;5093964;28;20679;-74
2021/11/09 12:16:42;;;;;;;6.22;3.85;;;11.80;99.30;;;;;;5094120;28;20213;-73
2021/11/09 12:19:09;;;;;;;4.07;3.35;;;12.30;98.90;;;;;;5093749;28;20212;-73
2021/11/09 12:21:39;;;;;;;4.05;3.22;;;12.80;97.70;;;;;;5093635;28;20568;-71
2021/11/09 12:24:17;;;;;;;5.88;3.00;;;13.30;96.70;;;;;;5094009;28;20449;-72
2021/11/09 12:26:46;;;;;;;4.00;3.47;;;13.70;94.50;;;;;;5093676;28;20208;-69
2021/11/09 12:29:41;;;;;;;5.68;3.35;;;14.00;93.40;;;;;;5093593;28;20214;-70
2021/11/09 12:32:31;;;;;;;5.20;3.80;;;13.70;92.30;;;;;;5093591;28;20198;-71
2021/11/09 12:35:03;;;;;;;4.60;3.53;;;13.50;91.60;;;;;;5093603;28;20206;-72
2021/11/09 12:37:32;;;;;;;4.55;3.15;;;13.20;92.50;;;;;;5093564;28;20640;-70
2021/11/09 12:40:34;;;;;;;4.30;3.33;;;12.90;94.10;;;;;;5093500;28;20544;-71
2021/11/09 12:43:13;;;;;;;4.25;3.33;;;12.70;93.60;;;;;;5087499;28;20706;-71
2021/11/09 12:45:43;;;;;;;4.53;3.95;;;12.50;94.00;;;;;;5093460;28;20198;-70
2021/11/09 12:48:13;;;;;;;4.45;3.40;;;12.40;94.80;;;;;;5093241;28;20290;-72
2021/11/09 12:50:47;;;;;;;8.93;3.75;;;12.30;94.20;;;;;;5093681;28;20279;-71
2021/11/09 12:53:16;;;;;;;6.35;3.30;;;12.10;93.70;;;;;;5093022;28;20313;-72
2021/11/09 12:55:54;;;;;;;7.45;3.22;;;12.00;94.80;;;;;;5093386;28;20229;-72
2021/11/09 12:58:23;;;;;;;4.90;3.05;;;12.10;94.10;;;;;;5093272;28;20313;-73
2021/11/09 13:01:13;;;;;;;7.20;3.63;;;12.00;94.50;;;;;;5093230;28;20288;-73
2021/11/09 13:03:46;;;;;;;4.35;3.20;;;12.10;93.90;;;;;;5092633;28;20222;-73
2021/11/09 13:06:36;;;;;;;5.65;3.90;;;12.10;94.30;;;;;;5093115;28;20301;-71
2021/11/09 13:09:08;;;;;;;4.60;3.30;;;12.10;94.40;;;;;;5092785;28;20202;-71
2021/11/09 13:11:40;;;;;;;4.93;4.03;;;12.00;93.90;;;;;;5092895;28;20244;-70
2021/11/09 13:14:09;;;;;;;5.00;4.50;;;11.90;93.10;;;;;;5092886;28;20222;-72
2021/11/09 13:16:41;;;;;;;6.30;4.10;;;11.80;93.30;;;;;;5092898;28;20202;-71
2021/11/09 13:19:08;;;;;;;6.57;4.38;;;11.70;92.80;;;;;;5092473;28;20252;-71
2021/11/09 13:21:37;;;;;;;5.95;4.25;;;11.70;93.50;;;;;;5092717;28;20293;-71
2021/11/09 13:24:04;;;;;;;6.55;3.95;;;11.60;94.40;;;;;;5092615;28;20229;-71
2021/11/09 13:26:32;;;;;;;7.35;3.90;;;11.60;95.10;;;;;;5093001;28;20626;-70
2021/11/09 13:29:06;;;;;;;6.55;4.40;;;11.50;93.90;;;;;;5092564;28;20200;-71
2021/11/09 13:31:34;;;;;;;6.47;4.20;;;11.50;94.20;;;;;;5092509;28;20305;-71
2021/11/09 13:34:03;;;;;;;6.97;4.03;;;11.40;95.00;;;;;;5092526;28;20290;-71
2021/11/09 13:36:30;;;;;;;5.50;3.97;;;11.40;95.30;;;;;;5092876;28;20545;-71
2021/11/09 13:38:58;;;;;;;6.22;3.45;;;11.40;95.60;;;;;;5092367;28;20279;-71
2021/11/09 13:41:32;;;;;;;6.90;4.47;;;11.40;95.90;;;;;;5092548;28;20198;-71
2021/11/09 13:44:03;;;;;;;6.10;4.05;;;11.40;94.50;;;;;;5092463;28;20278;-73
2021/11/09 13:46:33;;;;;;;4.40;4.00;;;11.40;94.70;;;;;;5092745;28;20202;-71
2021/11/09 13:49:03;;;;;;;4.13;3.70;;;11.40;95.10;;;;;;5092559;28;20198;-70
2021/11/09 13:51:34;;;;;;;8.23;4.13;;;11.30;94.70;;;;;;5092515;28;20228;-70
2021/11/09 13:54:04;;;;;;;7.25;4.57;;;11.40;95.50;;;;;;5092079;28;20222;-72
2021/11/09 13:56:31;;;;;;;4.45;4.05;;;11.40;95.50;;;;;;5092315;28;20205;-72
2021/11/09 13:59:01;;;;;;;7.07;4.55;;;11.30;94.50;;;;;;5092358;28;20313;-71
2021/11/09 14:01:36;;;;;;;4.95;3.85;;;11.30;94.30;;;;;;5092091;28;20891;-70
2021/11/09 14:04:09;;;;;;;6.45;4.15;;;11.30;94.90;;;;;;5092291;28;20573;-71
2021/11/09 14:15:41;;;;;;;4.40;3.92;;;11.30;96.00;;;;;;5089754;28;20656;-71
2021/11/09 14:18:15;;;;;;;3.90;3.20;;;11.20;94.90;;;;;;5096166;28;20228;-71
2021/11/09 14:20:51;;;;;;;5.85;3.58;;;11.20;95.80;;;;;;5096479;28;20293;-72
2021/11/09 14:23:27;;;;;;;4.07;3.13;;;11.20;95.10;;;;;;5095699;28;20230;-72
2021/11/09 14:25:54;;;;;;;4.07;3.38;;;11.20;95.20;;;;;;5096470;28;20279;-70
2021/11/09 14:28:35;;;;;;;4.30;3.40;;;11.10;95.50;;;;;;5095959;28;20289;-70
2021/11/09 14:31:14;;;;;;;4.22;3.33;;;11.10;95.90;;;;;;5096003;28;20209;-69
2021/11/09 14:33:42;;;;;;;3.65;3.05;;;10.90;96.20;;;;;;5095603;28;20715;-69
2021/11/09 14:36:31;;;;;;;5.28;3.40;;;10.80;97.10;;;;;;5095669;28;20202;-71
2021/11/09 14:39:14;;;;;;;5.40;3.15;;;10.80;96.50;;;;;;5095605;28;20308;-72
2021/11/09 14:42:08;;;;;;;6.53;3.53;;;10.70;96.50;;;;;;5095570;28;20664;-70
2021/11/09 14:44:57;;;;;;;5.05;3.35;;;10.70;95.90;;;;;;5095666;28;20234;-72
2021/11/09 14:47:25;;;;;;;3.47;3.10;;;10.70;96.70;;;;;;5095758;28;20206;-70